Time;durP1;ratioP1;P1;durP2;ratioP2;P2;SDS_P1;SDS_P2;PMS_P1;PMS_P2;Temp;Humidity;BMP_temperature;BMP_pressure;BME280_temperature;BME280_humidity;BME280_pressure;Samples;Min_cycle;Max_cycle;Signal;HPM_P1;HPM_P2
2022/08/01 00:01:53;;;;;;;5.05;2.05;;;;;;;19.78;86.20;96201.28;5115277;27;20043;-76
2022/08/01 00:04:19;;;;;;;5.32;2.00;;;;;;;19.78;86.24;96203.97;5119472;27;20051;-75
2022/08/01 00:06:44;;;;;;;3.40;1.77;;;;;;;19.83;86.16;96203.28;5081569;28;20734;-76
2022/08/01 00:09:10;;;;;;;3.00;1.92;;;;;;;19.75;87.25;96201.72;5121501;27;20494;-76
2022/08/01 00:11:36;;;;;;;4.57;1.95;;;;;;;19.72;87.25;96201.34;5118522;27;20038;-75
2022/08/01 00:14:01;;;;;;;5.60;1.77;;;;;;;19.68;88.06;96205.44;5119417;27;20027;-76
2022/08/01 00:16:27;;;;;;;4.88;2.08;;;;;;;19.60;88.12;96213.72;5097167;27;20055;-75
2022/08/01 00:18:53;;;;;;;2.85;1.50;;;;;;;19.62;88.50;96211.66;5098222;27;20012;-76
2022/08/01 00:21:19;;;;;;;3.00;1.95;;;;;;;19.50;89.47;96209.66;5096696;27;20041;-75
2022/08/01 00:23:45;;;;;;;4.18;1.90;;;;;;;19.54;89.75;96204.72;5107506;27;20157;-75
2022/08/01 00:26:12;;;;;;;4.38;1.80;;;;;;;19.44;90.34;96205.19;5118948;27;20030;-75
2022/08/01 00:28:38;;;;;;;4.93;2.10;;;;;;;19.36;91.05;96204.63;5125478;27;20305;-74
2022/08/01 00:31:04;;;;;;;5.55;2.30;;;;;;;19.39;90.94;96212.22;5127934;27;20047;-75
2022/08/01 00:33:29;;;;;;;3.78;1.85;;;;;;;19.37;90.93;96209.75;5126962;27;20039;-75
2022/08/01 00:35:55;;;;;;;3.03;1.75;;;;;;;19.40;90.84;96211.97;5109615;27;20039;-75
2022/08/01 00:38:21;;;;;;;3.95;1.73;;;;;;;19.37;90.56;96215.06;5127458;27;20080;-75
2022/08/01 00:40:47;;;;;;;3.38;1.90;;;;;;;19.35;91.15;96211.81;5131019;27;20077;-75
2022/08/01 00:43:14;;;;;;;3.97;1.85;;;;;;;19.33;91.30;96207.72;5114053;28;20027;-75
2022/08/01 00:45:39;;;;;;;3.38;2.15;;;;;;;19.25;91.63;96214.16;5128377;27;20114;-76
2022/08/01 00:48:05;;;;;;;2.70;1.90;;;;;;;19.25;92.17;96214.97;5098510;27;20704;-77
2022/08/01 00:50:31;;;;;;;6.07;2.00;;;;;;;19.22;92.38;96214.56;5101511;27;20119;-76
2022/08/01 00:52:58;;;;;;;3.50;2.20;;;;;;;19.14;92.73;96215.63;5093497;28;20753;-75
2022/08/01 00:55:24;;;;;;;4.57;1.80;;;;;;;19.12;93.57;96215.03;5115077;27;20026;-75
2022/08/01 00:57:50;;;;;;;3.30;2.00;;;;;;;19.07;93.87;96220.97;5097998;27;20080;-75
2022/08/01 01:00:16;;;;;;;3.17;2.10;;;;;;;19.08;94.30;96221.81;5115695;27;20674;-76
2022/08/01 01:02:41;;;;;;;3.90;1.83;;;;;;;19.03;94.96;96218.97;5099676;27;20042;-75
2022/08/01 01:05:08;;;;;;;3.97;2.15;;;;;;;19.02;95.96;96223.47;5098353;27;20031;-76
2022/08/01 01:08:08;;;;;;;3.78;2.20;;;;;;;19.05;96.31;96222.25;5115974;27;20033;-76
2022/08/01 01:10:46;;;;;;;4.95;2.25;;;;;;;18.92;97.56;96217.78;5101831;27;20118;-76
2022/08/01 01:13:59;;;;;;;5.30;2.10;;;;;;;18.76;99.44;96226.25;5118547;27;20665;-75
2022/08/01 01:16:26;;;;;;;6.18;2.28;;;;;;;18.74;100.00;96230.97;5102586;27;20049;-75
2022/08/01 01:19:00;;;;;;;4.65;2.25;;;;;;;18.74;100.00;96230.97;5098315;27;20416;-75
2022/08/01 01:21:58;;;;;;;3.92;2.28;;;;;;;18.67;100.00;96230.16;5120427;27;20039;-75
2022/08/01 01:24:47;;;;;;;4.40;2.35;;;;;;;18.68;100.00;96234.44;5103040;27;20027;-76
2022/08/01 01:27:24;;;;;;;4.75;2.60;;;;;;;18.58;100.00;96230.38;5118742;27;20032;-76
2022/08/01 01:29:53;;;;;;;4.20;2.22;;;;;;;18.45;100.00;96237.59;5091389;27;20635;-75
2022/08/01 01:32:28;;;;;;;8.25;3.15;;;;;;;18.47;100.00;96236.34;5117828;27;20028;-75
2022/08/01 01:34:56;;;;;;;6.03;2.17;;;;;;;18.44;100.00;96244.75;5101425;27;20177;-75
2022/08/01 01:37:24;;;;;;;4.97;2.67;;;;;;;18.43;100.00;96244.97;5085373;27;20042;-75
2022/08/01 01:39:52;;;;;;;3.75;2.13;;;;;;;18.42;100.00;96236.16;5117795;27;20042;-76
2022/08/01 01:42:19;;;;;;;4.97;2.55;;;;;;;18.39;100.00;96239.25;5114370;27;20041;-75
2022/08/01 01:44:46;;;;;;;5.82;3.00;;;;;;;18.44;100.00;96236.75;5086839;27;20027;-75
2022/08/01 01:47:17;;;;;;;3.50;2.10;;;;;;;18.35;100.00;96233.50;5118433;27;20039;-75
2022/08/01 01:49:46;;;;;;;7.93;2.47;;;;;;;18.26;100.00;96234.75;5083157;27;20035;-75
2022/08/01 01:52:15;;;;;;;5.57;2.63;;;;;;;18.27;100.00;96240.88;5120316;27;20023;-75
2022/08/01 01:54:46;;;;;;;5.03;2.63;;;;;;;18.23;100.00;96237.81;5119913;27;20027;-75
2022/08/01 01:57:14;;;;;;;4.25;2.10;;;;;;;18.19;100.00;96236.59;5123072;27;20035;-75
2022/08/01 01:59:41;;;;;;;5.07;2.50;;;;;;;18.16;100.00;96241.53;5102477;27;20131;-75
2022/08/01 02:02:08;;;;;;;4.90;2.30;;;;;;;18.13;100.00;96240.91;5105702;27;20059;-76
2022/08/01 02:04:42;;;;;;;4.78;2.45;;;;;;;18.17;100.00;96241.31;5103563;27;20100;-75
2022/08/01 02:07:10;;;;;;;6.00;2.40;;;;;;;18.19;100.00;96241.13;5124432;27;20068;-75
2022/08/01 02:09:39;;;;;;;3.33;2.17;;;;;;;18.12;100.00;96243.78;5106635;27;20518;-75
2022/08/01 02:12:06;;;;;;;5.65;2.30;;;;;;;18.14;100.00;96253.22;5120349;27;20039;-76
2022/08/01 02:14:37;;;;;;;6.10;2.10;;;;;;;18.18;100.00;96248.28;5122155;27;20023;-75
2022/08/01 02:17:03;;;;;;;5.00;2.63;;;;;;;18.26;100.00;96253.38;5118317;27;20042;-75
2022/08/01 02:19:30;;;;;;;4.32;2.50;;;;;;;18.24;100.00;96252.78;5123887;27;21302;-76
2022/08/01 02:22:02;;;;;;;4.97;2.58;;;;;;;18.24;100.00;96259.94;5119762;27;20034;-76
2022/08/01 02:24:52;;;;;;;3.75;2.50;;;;;;;18.23;100.00;96253.78;5104048;27;20125;-76
2022/08/01 02:27:24;;;;;;;3.67;2.42;;;;;;;18.19;100.00;96255.25;5104626;27;20066;-76
2022/08/01 02:29:56;;;;;;;6.05;2.90;;;;;;;18.14;100.00;96255.88;5118866;27;20115;-75
2022/08/01 02:32:40;;;;;;;3.75;2.10;;;;;;;18.05;100.00;96249.13;5103119;27;20050;-75
2022/08/01 02:35:09;;;;;;;;;;;;;;;18.03;100.00;96245.81;5104443;27;20068;-75
2022/08/01 02:37:38;;;;;;;5.50;2.03;;;;;;;17.99;100.00;96252.59;5118744;27;19927;-75
2022/08/01 02:40:07;;;;;;;6.72;2.33;;;;;;;18.08;100.00;96248.69;5121025;27;20032;-76
2022/08/01 02:42:35;;;;;;;5.68;2.50;;;;;;;17.97;100.00;96251.16;5118136;27;20118;-75
2022/08/01 02:45:04;;;;;;;5.38;2.42;;;;;;;17.98;100.00;96245.63;5112408;27;20045;-75
2022/08/01 02:47:31;;;;;;;5.03;2.65;;;;;;;18.00;100.00;96248.91;5134455;27;20027;-76
2022/08/01 02:50:00;;;;;;;5.78;2.75;;;;;;;17.95;100.00;96254.03;5101192;27;20530;-75
2022/08/01 02:52:28;;;;;;;4.45;2.58;;;;;;;17.97;100.00;96256.47;5130742;27;20027;-76
2022/08/01 02:54:56;;;;;;;4.13;2.30;;;;;;;17.97;100.00;96249.31;5117919;27;20045;-75
2022/08/01 02:57:23;;;;;;;3.25;2.30;;;;;;;17.96;100.00;96249.53;5117420;27;20041;-75
2022/08/01 02:59:50;;;;;;;3.85;2.50;;;;;;;17.90;100.00;96251.97;5120058;27;20050;-75
2022/08/01 03:02:17;;;;;;;5.25;2.53;;;;;;;17.84;100.00;96252.81;5102259;27;20031;-75
2022/08/01 03:04:44;;;;;;;4.32;2.17;;;;;;;17.87;100.00;96252.41;5114613;27;20027;-75
2022/08/01 03:07:12;;;;;;;6.65;2.83;;;;;;;17.81;100.00;96252.41;5119179;27;20035;-75
2022/08/01 03:09:41;;;;;;;5.50;2.08;;;;;;;17.79;100.00;96254.44;5116067;27;20035;-75
2022/08/01 03:12:13;;;;;;;3.53;2.15;;;;;;;17.70;100.00;96247.63;5116162;27;20489;-75
2022/08/01 03:14:41;;;;;;;5.10;2.30;;;;;;;17.64;100.00;96252.75;5116243;27;21483;-75
2022/08/01 03:17:08;;;;;;;5.03;2.63;;;;;;;17.66;100.00;96261.34;5103000;27;20031;-75
2022/08/01 03:19:37;;;;;;;6.47;3.03;;;;;;;17.61;100.00;96261.13;5116893;27;20126;-75
2022/08/01 03:22:09;;;;;;;3.95;2.42;;;;;;;17.62;100.00;96264.63;5099020;27;20043;-76
2022/08/01 03:24:39;;;;;;;5.47;2.90;;;;;;;17.63;100.00;96263.59;5098013;27;20039;-75
2022/08/01 03:27:06;;;;;;;4.75;2.30;;;;;;;17.61;100.00;96260.31;5096566;27;20126;-76
2022/08/01 03:29:33;;;;;;;5.72;3.03;;;;;;;17.71;100.00;96260.75;5117321;27;20039;-75
2022/08/01 03:32:02;;;;;;;4.25;2.22;;;;;;;17.65;100.00;96261.56;5096094;28;20050;-75
2022/08/01 03:34:28;;;;;;;4.10;2.55;;;;;;;17.58;100.00;96260.72;5115076;27;20083;-75
2022/08/01 03:37:18;;;;;;;3.85;2.47;;;;;;;17.55;100.00;96267.25;5099378;28;20031;-75
2022/08/01 03:39:48;;;;;;;4.25;2.35;;;;;;;17.62;100.00;96261.94;5118241;27;20026;-75
2022/08/01 03:42:18;;;;;;;5.00;2.45;;;;;;;17.61;100.00;96262.97;5115416;27;20053;-75
2022/08/01 03:44:53;;;;;;;5.38;2.83;;;;;;;17.58;100.00;96268.69;5085680;27;20033;-75
2022/08/01 03:47:25;;;;;;;5.28;3.28;;;;;;;17.51;100.00;96268.69;5103053;27;20459;-76
2022/08/01 03:49:53;;;;;;;5.13;2.80;;;;;;;17.53;100.00;96266.63;5114797;27;20032;-75
2022/08/01 03:52:20;;;;;;;5.88;2.70;;;;;;;17.51;100.00;96265.22;5097363;27;20023;-75
2022/08/01 03:54:54;;;;;;;3.42;2.25;;;;;;;17.49;100.00;96269.91;5116696;27;20035;-75
2022/08/01 03:57:20;;;;;;;4.43;2.42;;;;;;;17.53;100.00;96271.13;5115120;27;20035;-74
2022/08/01 03:59:47;;;;;;;5.30;2.63;;;;;;;17.55;100.00;96275.25;5098072;27;20038;-75
2022/08/01 04:02:14;;;;;;;3.80;2.20;;;;;;;17.56;100.00;96270.72;5116039;27;20035;-74
2022/08/01 04:04:40;;;;;;;6.82;2.55;;;;;;;17.50;100.00;96268.88;5102714;27;20050;-75
2022/08/01 04:07:27;;;;;;;3.97;2.45;;;;;;;17.54;100.00;96272.75;5096139;27;20027;-74
2022/08/01 04:09:53;;;;;;;5.30;2.60;;;;;;;17.52;100.00;96272.16;5095673;28;20035;-74
2022/08/01 04:12:19;;;;;;;4.43;2.67;;;;;;;17.46;100.00;96273.78;5113083;27;21320;-75
2022/08/01 04:14:46;;;;;;;6.03;3.47;;;;;;;17.48;100.00;96277.06;5117877;27;20058;-75
2022/08/01 04:17:12;;;;;;;6.57;4.00;;;;;;;17.46;100.00;96276.44;5094131;27;20114;-74
2022/08/01 04:19:37;;;;;;;4.90;3.08;;;;;;;17.49;100.00;96280.53;5114403;27;20636;-75
2022/08/01 04:22:04;;;;;;;4.93;2.88;;;;;;;17.53;100.00;96281.78;5095969;28;20030;-75
2022/08/01 04:24:32;;;;;;;3.60;2.45;;;;;;;17.60;100.00;96291.38;5114957;27;20024;-74
2022/08/01 04:27:01;;;;;;;7.55;2.75;;;;;;;17.67;100.00;96289.59;5111940;27;20048;-74
2022/08/01 04:29:29;;;;;;;3.80;2.25;;;;;;;17.73;100.00;96293.25;5095168;27;20023;-75
2022/08/01 04:31:57;;;;;;;8.02;5.25;;;;;;;17.80;100.00;96298.63;5080521;27;20036;-75
2022/08/01 04:34:26;;;;;;;6.38;4.05;;;;;;;17.79;100.00;96297.81;5097204;27;20051;-75
2022/08/01 04:36:55;;;;;;;4.40;2.33;;;;;;;17.82;100.00;96299.25;5117345;27;20714;-75
2022/08/01 04:39:27;;;;;;;3.35;2.13;;;;;;;17.83;100.00;96299.03;5121814;27;20027;-74
2022/08/01 04:41:56;;;;;;;4.90;2.80;;;;;;;17.86;100.00;96308.44;5117367;27;20356;-75
2022/08/01 04:44:23;;;;;;;6.93;3.13;;;;;;;17.88;100.00;96301.09;5115041;27;20039;-75
2022/08/01 04:46:54;;;;;;;4.43;2.60;;;;;;;17.85;100.00;96298.84;5098009;27;20026;-75
2022/08/01 04:49:21;;;;;;;4.43;2.72;;;;;;;17.89;100.00;96297.41;5115389;27;20076;-75
2022/08/01 04:51:59;;;;;;;3.38;2.25;;;;;;;18.02;100.00;96305.41;5096119;27;20034;-74
2022/08/01 04:54:33;;;;;;;4.95;2.13;;;;;;;18.10;100.00;96307.84;5116278;27;20027;-74
2022/08/01 04:57:00;;;;;;;6.63;2.60;;;;;;;18.24;100.00;96305.19;5129902;27;20038;-75
2022/08/01 04:59:42;;;;;;;4.50;2.47;;;;;;;18.29;100.00;96310.72;5114101;27;20555;-74
2022/08/01 05:02:17;;;;;;;4.53;2.95;;;;;;;18.47;100.00;96310.09;5099593;27;20031;-75
2022/08/01 05:04:44;;;;;;;4.57;2.35;;;;;;;18.68;100.00;96309.03;5097520;27;20035;-74
2022/08/01 05:07:11;;;;;;;5.53;2.50;;;;;;;18.59;100.00;96311.09;5098648;27;20095;-73
2022/08/01 05:09:38;;;;;;;5.68;2.83;;;;;;;18.87;100.00;96316.19;5117022;27;20126;-74
2022/08/01 05:12:05;;;;;;;5.15;2.50;;;;;;;18.95;100.00;96321.31;5114443;27;20023;-75
2022/08/01 05:14:32;;;;;;;3.97;2.67;;;;;;;18.98;100.00;96314.72;5115538;27;20467;-74
2022/08/01 05:16:59;;;;;;;3.92;2.42;;;;;;;19.09;100.00;96319.41;5115185;27;20035;-74
2022/08/01 05:19:26;;;;;;;4.22;2.80;;;;;;;19.26;100.00;96317.09;5115081;27;20109;-75
2022/08/01 05:21:52;;;;;;;5.32;2.67;;;;;;;19.47;100.00;96315.97;5114741;27;20385;-74
2022/08/01 05:24:18;;;;;;;5.55;2.63;;;;;;;19.50;100.00;96315.53;5115331;27;20023;-75
2022/08/01 05:26:43;;;;;;;5.28;2.97;;;;;;;19.73;100.00;96315.84;5115241;27;20038;-75
2022/08/01 05:29:09;;;;;;;5.78;2.75;;;;;;;19.70;100.00;96320.78;5113596;27;20023;-75
2022/08/01 05:31:35;;;;;;;3.15;2.30;;;;;;;19.71;100.00;96311.75;5097018;27;20043;-75
2022/08/01 05:34:01;;;;;;;4.88;2.45;;;;;;;19.95;100.00;96308.31;5116206;27;20046;-74
2022/08/01 05:36:28;;;;;;;6.47;2.63;;;;;;;20.01;100.00;96318.09;5096678;27;20024;-74
2022/08/01 05:38:53;;;;;;;8.73;3.58;;;;;;;20.20;100.00;96312.84;5118990;27;20032;-74
2022/08/01 05:41:19;;;;;;;5.60;2.88;;;;;;;20.45;100.00;96318.97;5097064;27;20042;-75
2022/08/01 05:43:45;;;;;;;4.40;2.72;;;;;;;20.55;100.00;96313.19;5119064;27;20030;-74
2022/08/01 05:46:10;;;;;;;4.50;2.72;;;;;;;20.70;100.00;96313.66;5117381;27;20035;-75
2022/08/01 05:48:36;;;;;;;5.40;2.75;;;;;;;20.83;100.00;96307.38;5118212;27;20037;-75
2022/08/01 05:51:03;;;;;;;6.03;2.85;;;;;;;20.95;98.24;96318.13;5115323;27;20055;-74
2022/08/01 05:53:28;;;;;;;3.42;2.33;;;;;;;20.92;99.84;96313.22;5114451;27;20123;-74
2022/08/01 05:55:55;;;;;;;5.07;2.63;;;;;;;20.99;97.24;96318.50;5076961;27;20112;-74
2022/08/01 05:58:21;;;;;;;5.22;2.65;;;;;;;21.06;97.12;96313.88;5095284;27;20038;-74
2022/08/01 06:00:46;;;;;;;4.13;2.60;;;;;;;21.54;96.15;96310.47;5096935;27;21305;-73
2022/08/01 06:03:14;;;;;;;3.55;2.33;;;;;;;21.87;92.30;96304.66;5105489;27;20032;-74
2022/08/01 06:05:40;;;;;;;8.30;2.42;;;;;;;22.25;88.44;96306.94;5120835;27;20702;-74
2022/08/01 06:08:05;;;;;;;3.65;2.60;;;;;;;22.51;86.73;96304.88;5136983;27;20023;-75
2022/08/01 06:10:31;;;;;;;4.25;2.40;;;;;;;22.35;87.43;96301.84;5114051;27;20373;-74
2022/08/01 06:12:57;;;;;;;4.55;2.83;;;;;;;22.73;84.79;96307.78;5129005;27;20031;-74
2022/08/01 06:15:22;;;;;;;14.07;3.00;;;;;;;22.57;85.65;96303.97;5125101;27;20027;-74
2022/08/01 06:17:48;;;;;;;4.65;2.92;;;;;;;22.81;83.95;96305.56;5129450;27;20139;-74
2022/08/01 06:20:14;;;;;;;5.35;2.75;;;;;;;22.97;85.39;96316.63;5103976;27;20023;-74
2022/08/01 06:22:39;;;;;;;4.00;2.50;;;;;;;23.37;80.94;96318.53;5113656;27;20380;-75
2022/08/01 06:25:06;;;;;;;4.60;2.65;;;;;;;23.53;79.83;96317.78;5117358;27;20074;-74
2022/08/01 06:27:35;;;;;;;3.80;2.60;;;;;;;23.67;77.98;96321.00;5138531;27;20031;-74
2022/08/01 06:30:02;;;;;;;4.97;2.38;;;;;;;23.62;78.80;96324.41;5138678;27;20103;-74
2022/08/01 06:32:29;;;;;;;6.15;3.13;;;;;;;23.88;78.64;96322.25;5101660;27;20850;-75
2022/08/01 06:34:55;;;;;;;4.57;3.15;;;;;;;23.67;78.79;96332.56;5110234;27;20038;-74
2022/08/01 06:37:21;;;;;;;5.80;2.55;;;;;;;23.96;78.40;96327.22;5139304;27;20122;-74
2022/08/01 06:39:47;;;;;;;5.93;2.20;;;;;;;23.89;77.64;96332.75;5103959;27;20037;-75
2022/08/01 06:42:14;;;;;;;3.55;2.58;;;;;;;23.47;80.80;96322.28;5122684;27;20034;-75
2022/08/01 06:44:40;;;;;;;4.30;3.03;;;;;;;23.60;81.58;96326.50;5119339;27;20054;-75
2022/08/01 06:47:06;;;;;;;4.90;2.58;;;;;;;23.84;79.66;96324.56;5141152;27;20476;-75
2022/08/01 06:49:31;;;;;;;5.63;2.45;;;;;;;24.38;77.44;96319.59;5107985;27;20032;-74
2022/08/01 06:51:57;;;;;;;4.00;2.60;;;;;;;24.90;75.72;96321.22;5115369;27;20031;-75
2022/08/01 06:54:23;;;;;;;5.45;2.65;;;;;;;24.56;75.54;96325.81;5130885;27;20096;-75
2022/08/01 06:56:48;;;;;;;4.82;2.50;;;;;;;25.19;71.27;96318.41;5140891;27;20026;-74
2022/08/01 06:59:14;;;;;;;3.85;2.50;;;;;;;25.55;69.70;96317.78;5142399;27;20034;-74
2022/08/01 07:01:40;;;;;;;4.60;2.90;;;;;;;25.30;70.69;96320.97;5129646;27;20023;-74
2022/08/01 07:04:06;;;;;;;4.55;2.58;;;;;;;25.70;68.62;96314.41;5131855;27;20064;-74
2022/08/01 07:06:32;;;;;;;3.65;2.28;;;;;;;25.94;66.15;96320.34;5138651;27;20038;-74
2022/08/01 07:08:57;;;;;;;4.82;2.47;;;;;;;25.78;66.90;96305.88;5130245;27;20029;-75
2022/08/01 07:11:23;;;;;;;3.63;2.10;;;;;;;26.50;65.18;96318.19;5117219;27;20127;-74
2022/08/01 07:13:49;;;;;;;3.33;2.40;;;;;;;26.80;62.93;96301.38;5114474;27;20035;-75
2022/08/01 07:16:16;;;;;;;3.75;2.22;;;;;;;26.58;63.00;96307.97;5141459;27;20027;-74
2022/08/01 07:18:42;;;;;;;5.82;2.50;;;;;;;26.70;62.53;96308.59;5136279;27;20058;-74
2022/08/01 07:21:08;;;;;;;4.05;2.33;;;;;;;27.01;61.16;96313.09;5113209;27;20030;-74
2022/08/01 07:23:34;;;;;;;5.35;2.45;;;;;;;27.11;59.66;96308.84;5123255;27;20383;-74
2022/08/01 07:26:03;;;;;;;3.75;2.45;;;;;;;27.47;58.01;96309.84;5141229;27;20019;-74
2022/08/01 07:28:29;;;;;;;3.35;2.10;;;;;;;27.46;57.61;96306.31;5110107;27;20658;-74
2022/08/01 07:30:55;;;;;;;4.72;2.67;;;;;;;26.58;60.11;96307.97;5135377;27;20067;-74
2022/08/01 07:33:22;;;;;;;4.72;2.20;;;;;;;27.30;59.65;96306.50;5099947;27;20057;-75
2022/08/01 07:35:48;;;;;;;4.68;2.13;;;;;;;27.66;57.61;96307.44;5140603;27;20035;-75
2022/08/01 07:38:16;;;;;;;3.45;2.30;;;;;;;26.34;63.04;96311.00;5103540;27;20381;-74
2022/08/01 07:40:43;;;;;;;4.30;2.50;;;;;;;27.35;58.20;96311.94;5124636;27;20023;-74
2022/08/01 07:43:09;;;;;;;2.72;2.10;;;;;;;27.53;55.02;96313.34;5131523;27;20033;-74
2022/08/01 07:45:35;;;;;;;4.75;2.50;;;;;;;27.14;58.07;96311.84;5115172;27;20030;-75
2022/08/01 07:48:05;;;;;;;3.25;2.17;;;;;;;26.43;62.64;96309.47;5095287;27;20772;-74
2022/08/01 07:50:31;;;;;;;3.30;2.25;;;;;;;25.74;67.36;96303.94;5138949;27;20464;-75
2022/08/01 07:52:56;;;;;;;4.47;2.25;;;;;;;26.64;63.50;96309.63;5130347;27;20022;-75
2022/08/01 07:55:22;;;;;;;4.85;2.50;;;;;;;25.60;68.19;96314.31;5135584;27;20433;-74
2022/08/01 07:57:48;;;;;;;3.50;2.38;;;;;;;25.13;72.19;96323.72;5106701;27;20038;-75
2022/08/01 08:00:14;;;;;;;4.72;2.78;;;;;;;25.23;73.29;96320.34;5120998;27;20035;-75
2022/08/01 08:02:39;;;;;;;5.47;2.50;;;;;;;25.58;71.23;96316.44;5115992;27;20380;-74
2022/08/01 08:05:07;;;;;;;3.97;2.35;;;;;;;25.96;67.53;96318.22;5101638;27;20058;-75
2022/08/01 08:07:33;;;;;;;4.00;2.33;;;;;;;26.79;63.99;96307.88;5097271;27;20038;-75
2022/08/01 08:09:59;;;;;;;3.22;2.40;;;;;;;25.91;67.65;96314.66;5137957;27;20023;-74
2022/08/01 08:12:24;;;;;;;2.97;2.20;;;;;;;25.82;68.79;96311.59;5135691;27;20046;-76
2022/08/01 08:14:50;;;;;;;4.45;2.33;;;;;;;26.68;63.40;96306.16;5143343;27;20031;-74
2022/08/01 08:17:16;;;;;;;3.30;2.33;;;;;;;26.40;67.44;96304.59;5119060;27;20043;-75
2022/08/01 08:19:42;;;;;;;3.97;2.42;;;;;;;26.32;66.81;96305.03;5128357;27;20107;-74
2022/08/01 08:22:09;;;;;;;3.55;2.15;;;;;;;27.37;62.10;96301.69;5132911;27;20384;-74
2022/08/01 08:24:35;;;;;;;4.15;2.13;;;;;;;27.75;58.42;96305.84;5129995;27;20476;-74
2022/08/01 08:27:02;;;;;;;3.90;2.42;;;;;;;28.45;55.90;96298.16;5127590;27;20031;-74
2022/08/01 08:29:31;;;;;;;2.63;1.63;;;;;;;27.08;59.57;96310.16;5120537;27;20114;-74
2022/08/01 08:31:57;;;;;;;2.92;1.60;;;;;;;28.08;57.21;96312.69;5131083;27;20080;-74
2022/08/01 08:34:25;;;;;;;4.78;1.90;;;;;;;27.63;58.88;96307.97;5136251;27;20087;-75
2022/08/01 08:36:51;;;;;;;2.00;1.48;;;;;;;27.54;58.29;96310.41;5105930;27;20027;-74
2022/08/01 08:39:17;;;;;;;1.73;1.45;;;;;;;27.81;57.22;96310.22;5138450;27;20027;-74
2022/08/01 08:41:43;;;;;;;3.20;1.85;;;;;;;27.32;57.46;96313.28;5135971;27;20097;-74
2022/08/01 08:44:09;;;;;;;4.03;2.83;;;;;;;27.08;61.87;96320.16;5133243;27;20123;-75
2022/08/01 08:46:46;;;;;;;3.67;1.90;;;;;;;27.17;60.47;96315.91;5137500;27;20061;-74
2022/08/01 08:49:16;;;;;;;3.40;1.77;;;;;;;27.43;58.34;96314.97;5139498;27;20417;-74
2022/08/01 08:51:46;;;;;;;3.45;1.60;;;;;;;29.09;52.89;96297.50;5103125;27;20023;-74
2022/08/01 08:54:13;;;;;;;3.28;1.65;;;;;;;29.13;52.73;96297.75;5109285;27;20051;-74
2022/08/01 08:56:40;;;;;;;2.85;1.83;;;;;;;28.51;52.99;96301.66;5133492;27;20023;-74
2022/08/01 08:59:06;;;;;;;2.67;1.80;;;;;;;28.95;53.17;96298.34;5136924;27;20119;-74
2022/08/01 09:01:33;;;;;;;2.63;1.50;;;;;;;29.06;52.10;96305.38;5134452;27;20117;-76
2022/08/01 09:03:59;;;;;;;5.32;1.60;;;;;;;27.75;55.65;96308.56;5139592;27;20022;-75
2022/08/01 09:06:25;;;;;;;3.10;1.67;;;;;;;27.45;55.84;96306.56;5140722;27;20026;-75
2022/08/01 09:08:51;;;;;;;3.28;1.60;;;;;;;28.70;52.50;96300.00;5137644;27;20291;-75
2022/08/01 09:11:16;;;;;;;2.13;1.23;;;;;;;29.17;50.43;96292.59;5139710;27;20092;-75
2022/08/01 09:14:11;;;;;;;4.47;1.90;;;;;;;28.95;50.27;96301.06;5131980;27;20031;-75
2022/08/01 09:16:40;;;;;;;2.60;1.50;;;;;;;29.76;47.67;96299.97;5128943;27;20077;-75
2022/08/01 09:19:16;;;;;;;2.35;1.40;;;;;;;29.98;46.48;96294.09;5149051;27;20031;-75
2022/08/01 09:21:57;;;;;;;3.78;1.48;;;;;;;29.92;45.01;96308.81;5142779;27;20046;-75
2022/08/01 09:24:25;;;;;;;2.42;1.42;;;;;;;29.60;46.34;96302.75;5120278;27;20068;-75
2022/08/01 09:26:52;;;;;;;2.70;1.65;;;;;;;29.92;47.43;96293.34;5129530;27;20575;-75
2022/08/01 09:29:26;;;;;;;2.80;1.60;;;;;;;30.54;44.85;96297.22;5143701;27;20037;-75
2022/08/01 09:31:52;;;;;;;2.58;1.73;;;;;;;31.22;42.85;96300.91;5132612;27;20133;-75
2022/08/01 09:34:26;;;;;;;3.30;1.73;;;;;;;31.36;41.75;96303.78;5141916;27;20049;-75
2022/08/01 09:36:56;;;;;;;2.15;1.40;;;;;;;31.19;41.64;96287.94;5115875;27;20714;-75
2022/08/01 09:39:36;;;;;;;2.90;1.83;;;;;;;31.20;41.81;96293.06;5133433;27;20060;-75
2022/08/01 09:42:19;;;;;;;2.75;1.85;;;;;;;30.89;41.65;96289.88;5123093;27;20031;-75
2022/08/01 09:44:45;;;;;;;3.13;1.60;;;;;;;31.28;41.16;96301.66;5134668;27;20031;-75
2022/08/01 09:47:12;;;;;;;3.35;1.58;;;;;;;31.06;41.60;96297.56;5131946;27;20046;-75
2022/08/01 09:49:40;;;;;;;2.95;1.15;;;;;;;31.84;40.13;96298.25;5138005;27;20062;-75
2022/08/01 09:52:14;;;;;;;3.88;2.17;;;;;;;31.16;41.33;96300.16;5115637;27;20035;-75
2022/08/01 09:54:42;;;;;;;3.35;1.80;;;;;;;29.64;44.50;96294.84;5136682;27;20031;-74
2022/08/01 09:57:16;;;;;;;3.05;1.60;;;;;;;30.46;42.63;96294.34;5122686;27;20079;-75
2022/08/01 09:59:44;;;;;;;2.88;1.40;;;;;;;29.41;45.15;96301.75;5134446;27;20026;-75
2022/08/01 10:02:15;;;;;;;2.55;1.50;;;;;;;29.33;46.25;96302.28;5135747;27;20118;-75
2022/08/01 10:04:48;;;;;;;6.82;5.38;;;;;;;28.93;48.80;96295.09;5128952;27;20035;-75
2022/08/01 10:07:15;;;;;;;5.53;3.58;;;;;;;29.36;46.45;96291.72;5115492;27;20042;-75
2022/08/01 10:09:42;;;;;;;3.75;1.67;;;;;;;28.44;48.05;96304.66;5136796;27;20022;-75
2022/08/01 10:12:10;;;;;;;2.92;1.80;;;;;;;27.90;50.99;96302.38;5134998;27;20058;-75
2022/08/01 10:14:38;;;;;;;2.67;1.60;;;;;;;28.92;48.59;96296.19;5134158;27;20653;-75
2022/08/01 10:17:06;;;;;;;8.68;2.08;;;;;;;28.10;50.53;96302.44;5100951;27;20484;-75
2022/08/01 10:19:34;;;;;;;3.53;1.42;;;;;;;28.67;49.64;96300.53;5150529;27;20038;-75
2022/08/01 10:22:01;;;;;;;4.95;1.60;;;;;;;28.63;51.42;96299.47;5118810;27;20102;-76
2022/08/01 10:24:29;;;;;;;5.95;1.60;;;;;;;28.22;50.06;96299.47;5120514;27;20517;-76
2022/08/01 10:27:03;;;;;;;4.38;1.80;;;;;;;28.18;50.14;96298.38;5130319;27;20028;-76
2022/08/01 10:29:36;;;;;;;3.90;1.50;;;;;;;29.03;47.85;96292.38;5115636;27;20022;-76
2022/08/01 10:32:06;;;;;;;2.50;1.67;;;;;;;28.79;47.82;96294.84;5136433;27;20489;-75
2022/08/01 10:34:33;;;;;;;2.58;1.60;;;;;;;28.56;49.50;96293.53;5137295;27;20035;-74
2022/08/01 10:37:00;;;;;;;3.25;1.50;;;;;;;28.50;48.73;96298.13;5132468;27;20023;-75
2022/08/01 10:39:29;;;;;;;2.72;1.73;;;;;;;28.24;49.96;96301.91;5135179;27;20027;-76
2022/08/01 10:41:56;;;;;;;2.03;1.40;;;;;;;28.93;47.22;96286.97;5109228;27;20065;-74
2022/08/01 10:44:24;;;;;;;1.58;1.35;;;;;;;29.30;45.83;96279.28;5138263;27;20430;-74
2022/08/01 10:47:02;;;;;;;2.42;1.40;;;;;;;29.04;45.59;96288.56;5131800;27;20492;-75
2022/08/01 10:49:32;;;;;;;2.45;1.80;;;;;;;28.48;47.45;96291.38;5138306;27;20054;-75
2022/08/01 10:51:58;;;;;;;3.80;1.70;;;;;;;29.54;46.42;96293.00;5136995;27;20035;-75
2022/08/01 10:54:25;;;;;;;5.13;1.80;;;;;;;30.06;44.18;96279.97;5133897;27;20051;-75
2022/08/01 10:56:52;;;;;;;2.45;1.63;;;;;;;30.14;42.85;96282.06;5139964;27;20115;-75
2022/08/01 10:59:29;;;;;;;2.00;1.45;;;;;;;29.25;46.35;96273.91;5105080;27;20023;-75
2022/08/01 11:01:58;;;;;;;3.10;1.33;;;;;;;29.06;47.60;96281.00;5133739;27;20027;-75
2022/08/01 11:04:41;;;;;;;2.05;1.50;;;;;;;28.99;44.49;96289.38;5133887;27;20595;-75
2022/08/01 11:07:20;;;;;;;2.90;1.85;;;;;;;29.93;43.39;96281.41;5123835;27;20038;-75
2022/08/01 11:09:47;;;;;;;3.50;1.50;;;;;;;30.87;40.55;96281.19;5116284;27;20038;-75
2022/08/01 11:12:15;;;;;;;1.88;1.40;;;;;;;31.27;40.01;96281.03;5103139;27;20041;-75
2022/08/01 11:14:59;;;;;;;2.40;1.70;;;;;;;31.46;37.72;96276.47;5110667;27;20038;-75
2022/08/01 11:17:35;;;;;;;1.83;1.30;;;;;;;31.80;37.94;96275.47;5108895;27;20469;-75
2022/08/01 11:20:12;;;;;;;5.78;3.55;;;;;;;30.64;39.63;96266.47;5127080;27;20034;-75
2022/08/01 11:23:12;;;;;;;3.95;2.28;;;;;;;28.75;43.83;96275.66;5108928;27;20131;-75
2022/08/01 11:25:38;;;;;;;3.10;2.03;;;;;;;28.59;44.36;96271.34;5096529;27;20560;-75
2022/08/01 11:28:24;;;;;;;2.83;1.83;;;;;;;30.49;41.14;96269.34;5108865;27;20107;-75
2022/08/01 11:31:07;;;;;;;3.53;1.92;;;;;;;30.37;39.56;96255.34;5126593;27;20636;-76
2022/08/01 11:33:42;;;;;;;3.78;1.90;;;;;;;30.62;40.44;96256.97;5113780;27;20113;-75
2022/08/01 11:36:13;;;;;;;3.03;1.65;;;;;;;31.19;40.11;96255.31;5106717;27;20385;-75
2022/08/01 11:38:48;;;;;;;3.50;2.00;;;;;;;30.24;40.49;96256.78;5093861;27;20038;-75